KPNS/PNS METAR and TAF weather

Enter ICAO airport designator
Station Type Date Time Source
KPNS METAR 2018/12/11 17:53 UTC NOAA

KPNS 111753Z 35005KT 10SM CLR 12/02 A3036 RMK AO2 SLP285 T01170017 10117 20039 58019


Station Type Date Time Source
KPNS Decoded METAR 2018/12/11 17:53 UTC NOAA

PENSACOLA REGIONAL AIRPORT, FL, United States (KPNS) 30-29N 087-11W 38M
Dec 11, 2018 - 12:53 PM EST / 2018.12.11 1753 UTC
Wind: from the N (350 degrees) at 6 MPH (5 KT):0
Visibility: 10 mile(s):0
Sky conditions: clear
Temperature: 53.1 F (11.7 C)
Dew Point: 35.1 F (1.7 C)
Relative Humidity: 50%
Pressure (altimeter): 30.36 in. Hg (1028 hPa)
Pressure tendency: 0.06 inches (1.9 hPa) lower than three hours ago
ob: KPNS 111753Z 35005KT 10SM CLR 12/02 A3036 RMK AO2 SLP285 T01170017 10117 20039 58019
cycle: 18

Station Type Date Time Source
KPNS TAF 2018/12/11 18:27 UTC NOAA

TAF KPNS 111725Z 1118/1218 01008KT P6SM SKC
FM120000 VRB03KT P6SM SKC
FM121200 14005KT P6SM BKN250


Example: see airport list